createdAt,value
2022-10-06T00:00:47.398Z,18.00
2022-10-06T00:03:15.316Z,17.97
2022-10-06T00:05:44.671Z,17.96
2022-10-06T00:08:12.609Z,17.95
2022-10-06T00:10:40.860Z,17.70
2022-10-06T00:13:09.475Z,17.92
2022-10-06T00:15:37.413Z,17.90
2022-10-06T00:18:05.567Z,17.90
2022-10-06T00:20:33.496Z,17.90
2022-10-06T00:23:03.368Z,17.88
2022-10-06T00:25:31.284Z,17.90
2022-10-06T00:27:59.249Z,17.89
2022-10-06T00:30:28.121Z,17.91
2022-10-06T00:32:57.348Z,17.90
2022-10-06T00:35:25.517Z,17.88
2022-10-06T00:37:53.428Z,17.88
2022-10-06T00:40:22.960Z,17.90
2022-10-06T00:42:53.299Z,17.97
2022-10-06T00:45:24.181Z,17.97
2022-10-06T00:47:52.172Z,17.99
2022-10-06T00:50:20.091Z,17.98
2022-10-06T00:52:48.022Z,17.98
2022-10-06T00:55:15.997Z,17.96
2022-10-06T00:57:46.791Z,17.95
2022-10-06T01:00:15.149Z,17.91
2022-10-06T01:02:44.864Z,17.88
2022-10-06T01:05:16.116Z,17.85
2022-10-06T01:07:43.987Z,17.84
2022-10-06T01:10:11.917Z,17.83
2022-10-06T01:12:39.984Z,17.87
2022-10-06T01:15:10.629Z,17.90
2022-10-06T01:17:39.580Z,17.92
2022-10-06T01:20:09.156Z,17.94
2022-10-06T01:22:39.687Z,17.96
2022-10-06T01:25:08.797Z,17.99
2022-10-06T01:27:37.344Z,17.98
2022-10-06T01:30:05.902Z,17.96
2022-10-06T01:32:34.948Z,17.93
2022-10-06T01:35:02.845Z,17.87
2022-10-06T01:37:30.751Z,17.86
2022-10-06T01:40:00.017Z,17.84
2022-10-06T01:42:31.806Z,17.77
2022-10-06T01:44:59.703Z,17.87
2022-10-06T01:47:27.735Z,17.89
2022-10-06T01:49:55.800Z,17.97
2022-10-06T01:52:24.031Z,18.06
2022-10-06T01:54:51.923Z,18.15
2022-10-06T01:57:21.775Z,18.23
2022-10-06T01:59:54.428Z,18.32
2022-10-06T02:02:22.863Z,18.41
2022-10-06T02:04:50.709Z,18.50
2022-10-06T02:07:18.889Z,18.44
2022-10-06T02:09:46.762Z,18.37
2022-10-06T02:12:14.690Z,18.28
2022-10-06T02:14:44.006Z,18.20
2022-10-06T02:17:12.035Z,18.11
2022-10-06T02:19:39.929Z,18.05
2022-10-06T02:22:07.788Z,18.03
2022-10-06T02:24:35.718Z,17.99
2022-10-06T02:27:03.624Z,17.99
2022-10-06T02:29:31.552Z,17.95
2022-10-06T02:32:00.779Z,18.01
2022-10-06T02:34:29.336Z,18.03
2022-10-06T02:36:57.766Z,18.03
2022-10-06T02:39:25.687Z,18.06
2022-10-06T02:41:53.586Z,18.09
2022-10-06T02:44:21.558Z,18.16
2022-10-06T02:46:49.649Z,18.20
2022-10-06T02:49:19.039Z,18.25
2022-10-06T02:51:47.370Z,18.29
2022-10-06T02:54:15.568Z,18.32
2022-10-06T02:56:43.459Z,18.33
2022-10-06T02:59:11.399Z,18.36
2022-10-06T03:01:39.378Z,18.36
2022-10-06T03:04:07.429Z,18.33
2022-10-06T03:06:36.885Z,18.35
2022-10-06T03:09:05.817Z,18.33
2022-10-06T03:11:34.481Z,18.31
2022-10-06T03:14:02.362Z,18.31
2022-10-06T03:16:32.006Z,18.30
2022-10-06T03:19:00.164Z,18.32
2022-10-06T03:21:29.277Z,18.29
2022-10-06T03:23:58.642Z,18.28
2022-10-06T03:26:27.796Z,18.27
2022-10-06T03:28:55.695Z,18.28
2022-10-06T03:31:23.842Z,18.28
2022-10-06T03:33:51.874Z,18.26
2022-10-06T03:36:22.002Z,18.27
2022-10-06T03:38:49.940Z,18.25
2022-10-06T03:41:20.335Z,18.25
2022-10-06T03:43:49.387Z,18.27
2022-10-06T03:46:18.759Z,18.31
2022-10-06T03:48:46.710Z,18.35
2022-10-06T03:51:15.494Z,18.33
2022-10-06T03:53:44.873Z,18.34
2022-10-06T03:56:13.481Z,18.37
2022-10-06T03:58:45.431Z,18.36
2022-10-06T04:01:15.137Z,18.38
2022-10-06T04:03:43.167Z,18.42
2022-10-06T04:06:12.483Z,18.43
2022-10-06T04:08:40.902Z,18.44
2022-10-06T04:11:09.493Z,18.43
2022-10-06T04:13:37.602Z,18.42
2022-10-06T04:16:14.476Z,18.44
2022-10-06T04:18:42.531Z,18.41
2022-10-06T04:21:10.672Z,18.44
2022-10-06T04:23:38.565Z,18.46
2022-10-06T04:26:09.463Z,18.43
2022-10-06T04:28:38.256Z,18.44
2022-10-06T04:31:12.858Z,18.43
2022-10-06T04:33:42.729Z,18.41
2022-10-06T04:36:12.229Z,18.39
2022-10-06T04:38:40.139Z,18.39
2022-10-06T04:41:08.285Z,18.40
2022-10-06T04:43:36.228Z,18.41
2022-10-06T04:46:23.923Z,18.31
2022-10-06T04:48:54.331Z,18.42
2022-10-06T04:51:22.838Z,18.45
2022-10-06T04:53:50.870Z,18.46
2022-10-06T04:56:19.462Z,18.48
2022-10-06T04:58:47.987Z,18.49
2022-10-06T05:01:17.119Z,18.51
2022-10-06T05:03:45.850Z,18.55
2022-10-06T05:06:16.938Z,18.57
2022-10-06T05:08:44.972Z,18.59
2022-10-06T05:11:15.250Z,18.61
2022-10-06T05:13:46.122Z,18.63
2022-10-06T05:16:15.343Z,18.56
2022-10-06T05:18:43.300Z,18.57
2022-10-06T05:21:13.177Z,18.58
2022-10-06T05:23:42.857Z,18.53
2022-10-06T05:26:12.084Z,18.59
2022-10-06T05:28:40.156Z,18.62
2022-10-06T05:31:08.834Z,18.60
2022-10-06T05:33:37.148Z,18.60
2022-10-06T05:36:05.818Z,18.58
2022-10-06T05:38:33.794Z,18.57
2022-10-06T05:41:03.574Z,18.59
2022-10-06T05:43:31.698Z,18.59
2022-10-06T05:46:00.324Z,18.61
2022-10-06T05:48:28.731Z,18.58
2022-10-06T05:50:59.858Z,18.60
2022-10-06T05:53:27.849Z,18.55
2022-10-06T05:56:06.219Z,18.51
2022-10-06T05:58:34.819Z,18.50
2022-10-06T06:01:10.112Z,18.48
2022-10-06T06:03:38.227Z,18.48
2022-10-06T06:06:06.472Z,18.52
2022-10-06T06:08:34.436Z,18.56
2022-10-06T06:11:10.142Z,18.38
2022-10-06T06:13:38.182Z,18.37
2022-10-06T06:16:07.069Z,18.27
2022-10-06T06:18:35.630Z,18.11
2022-10-06T06:21:04.699Z,17.96
2022-10-06T06:23:33.288Z,17.84
2022-10-06T06:26:02.704Z,17.74
2022-10-06T06:28:32.967Z,17.65
2022-10-06T06:31:05.064Z,17.56
2022-10-06T06:33:33.242Z,17.48
2022-10-06T06:36:03.438Z,17.41
2022-10-06T06:38:32.979Z,17.40
2022-10-06T06:41:01.177Z,17.36
2022-10-06T06:43:29.697Z,17.29
2022-10-06T06:46:04.620Z,17.30
2022-10-06T06:48:33.171Z,17.20
2022-10-06T06:51:01.432Z,17.22
2022-10-06T06:53:29.455Z,17.20
2022-10-06T06:55:58.154Z,17.19
2022-10-06T06:58:28.071Z,17.25
2022-10-06T07:00:56.352Z,17.32
2022-10-06T07:03:55.645Z,17.38
2022-10-06T07:06:14.816Z,17.47
2022-10-06T07:08:43.797Z,17.54
2022-10-06T07:11:13.534Z,17.69
2022-10-06T07:13:42.389Z,17.79
2022-10-06T07:16:29.517Z,17.87
2022-10-06T07:19:19.089Z,17.88
2022-10-06T07:22:08.869Z,17.96
2022-10-06T07:24:54.646Z,18.01
2022-10-06T07:27:23.088Z,18.11
2022-10-06T07:29:54.467Z,18.16
2022-10-06T07:32:22.933Z,18.18
2022-10-06T07:34:55.934Z,18.25
2022-10-06T07:37:24.504Z,18.32
2022-10-06T07:39:52.411Z,18.40
2022-10-06T07:42:20.341Z,18.52
2022-10-06T07:45:08.786Z,18.65
2022-10-06T07:47:38.284Z,18.74
2022-10-06T07:50:08.554Z,18.71
2022-10-06T07:52:39.473Z,18.64
2022-10-06T07:55:08.407Z,18.56
2022-10-06T07:57:37.125Z,18.59
2022-10-06T08:00:07.446Z,18.65
2022-10-06T08:02:36.113Z,18.85
2022-10-06T08:05:05.123Z,18.89
2022-10-06T08:07:34.534Z,18.97
2022-10-06T08:10:02.622Z,18.93
2022-10-06T08:12:37.845Z,18.94
2022-10-06T08:15:07.627Z,19.03
2022-10-06T08:17:36.664Z,18.85
2022-10-06T08:20:04.928Z,19.19
2022-10-06T08:22:34.395Z,19.18
2022-10-06T08:25:06.836Z,19.14
2022-10-06T08:27:35.622Z,19.14
2022-10-06T08:30:04.052Z,19.16
2022-10-06T08:32:32.234Z,19.16
2022-10-06T08:35:00.250Z,19.19
2022-10-06T08:37:28.147Z,19.22
2022-10-06T08:39:57.567Z,19.26
2022-10-06T08:42:29.670Z,19.36
2022-10-06T08:44:59.424Z,19.43
2022-10-06T08:47:29.262Z,19.58
2022-10-06T08:49:57.764Z,19.64
2022-10-06T08:52:36.216Z,19.59
2022-10-06T08:55:09.845Z,19.68
2022-10-06T08:57:39.925Z,19.72
2022-10-06T09:00:12.175Z,19.81
2022-10-06T09:02:50.955Z,19.85
2022-10-06T09:05:25.398Z,19.92
2022-10-06T09:07:59.426Z,19.99
2022-10-06T09:10:38.477Z,20.01
2022-10-06T09:13:07.962Z,20.05
2022-10-06T09:15:37.575Z,20.19
2022-10-06T09:18:10.751Z,20.26
2022-10-06T09:20:42.576Z,20.41
2022-10-06T09:23:14.718Z,20.57
2022-10-06T09:25:44.916Z,20.79
2022-10-06T09:28:15.922Z,20.94
2022-10-06T09:30:44.061Z,21.04
2022-10-06T09:33:17.894Z,21.17
2022-10-06T09:36:06.258Z,21.28
2022-10-06T09:38:54.366Z,21.38
2022-10-06T09:41:28.718Z,21.39
2022-10-06T09:43:58.617Z,21.54
2022-10-06T09:46:34.024Z,21.65
2022-10-06T09:49:12.553Z,21.64
2022-10-06T09:51:40.470Z,21.52
2022-10-06T09:54:14.263Z,21.50
2022-10-06T09:56:43.644Z,21.57
2022-10-06T09:59:20.613Z,21.60
2022-10-06T10:01:55.333Z,21.65
2022-10-06T10:04:24.709Z,21.68
2022-10-06T10:06:56.606Z,21.75
2022-10-06T10:09:29.049Z,21.91
2022-10-06T10:12:31.365Z,22.13
2022-10-06T10:15:04.523Z,22.25
2022-10-06T10:17:41.195Z,22.42
2022-10-06T10:20:28.313Z,22.50
2022-10-06T10:22:56.797Z,22.55
2022-10-06T10:25:48.875Z,22.74
2022-10-06T10:28:35.393Z,22.73
2022-10-06T10:31:06.300Z,22.84
2022-10-06T10:33:43.205Z,23.00
2022-10-06T10:36:17.973Z,23.16
2022-10-06T10:38:46.838Z,23.42
2022-10-06T10:41:16.602Z,23.56
2022-10-06T10:43:48.066Z,23.52
2022-10-06T10:46:17.776Z,23.41
2022-10-06T10:48:47.374Z,23.26
2022-10-06T10:51:16.472Z,23.07
2022-10-06T10:53:47.522Z,22.90
2022-10-06T10:56:16.273Z,22.75
2022-10-06T10:58:45.651Z,22.62
2022-10-06T11:01:23.203Z,22.64
2022-10-06T11:06:32.081Z,23.02
2022-10-06T11:09:02.602Z,23.25
2022-10-06T11:12:11.709Z,23.42
2022-10-06T11:14:50.407Z,23.58
2022-10-06T11:17:25.103Z,23.64
2022-10-06T11:19:55.279Z,23.88
2022-10-06T11:22:27.024Z,24.01
2022-10-06T11:24:58.191Z,23.96
2022-10-06T11:27:36.434Z,23.84
2022-10-06T11:30:07.255Z,23.97
2022-10-06T11:32:43.203Z,24.12
2022-10-06T11:35:19.750Z,24.20
2022-10-06T11:37:49.853Z,24.26
2022-10-06T11:40:28.273Z,24.05
2022-10-06T11:42:58.304Z,23.95
2022-10-06T11:45:30.166Z,24.16
2022-10-06T11:48:12.628Z,24.38
2022-10-06T11:50:42.691Z,24.63
2022-10-06T11:53:24.331Z,24.84
2022-10-06T11:56:23.713Z,25.24
2022-10-06T11:59:10.557Z,25.62
2022-10-06T12:01:59.640Z,25.82
2022-10-06T12:04:27.677Z,26.01
2022-10-06T12:07:05.329Z,26.10
2022-10-06T12:09:53.911Z,26.34
2022-10-06T12:13:06.646Z,26.43
2022-10-06T12:17:06.017Z,26.63
2022-10-06T12:18:57.801Z,26.79
2022-10-06T12:21:33.712Z,27.01
2022-10-06T12:24:06.321Z,27.29
2022-10-06T12:26:51.049Z,27.25
2022-10-06T12:29:34.528Z,27.09
2022-10-06T12:32:09.646Z,26.80
2022-10-06T12:35:03.273Z,26.62
2022-10-06T12:37:54.910Z,26.42
2022-10-06T12:40:51.345Z,26.84
2022-10-06T12:43:33.233Z,26.82
2022-10-06T12:46:04.204Z,26.87
2022-10-06T12:48:37.161Z,26.74
2022-10-06T12:51:10.419Z,26.98
2022-10-06T12:53:39.657Z,27.19
2022-10-06T12:56:10.700Z,27.26
2022-10-06T12:58:39.683Z,27.30
2022-10-06T13:01:10.189Z,27.31
2022-10-06T13:03:38.112Z,27.37
2022-10-06T13:06:08.569Z,27.24
2022-10-06T13:08:37.275Z,26.81
2022-10-06T13:11:17.303Z,26.60
2022-10-06T13:13:48.280Z,26.42
2022-10-06T13:16:16.452Z,26.48
2022-10-06T13:18:44.409Z,26.56
2022-10-06T13:21:14.308Z,26.43
2022-10-06T13:23:42.259Z,26.38
2022-10-06T13:26:19.324Z,26.22
2022-10-06T13:28:48.359Z,26.68
2022-10-06T13:31:21.395Z,26.99
2022-10-06T13:33:51.178Z,27.23
2022-10-06T13:36:23.463Z,27.72
2022-10-06T13:38:51.456Z,27.94
2022-10-06T13:41:22.892Z,28.03
2022-10-06T13:43:52.858Z,28.32
2022-10-06T13:46:21.834Z,28.48
2022-10-06T13:48:51.183Z,28.51
2022-10-06T13:51:22.845Z,28.66
2022-10-06T13:53:51.236Z,28.55
2022-10-06T13:56:36.528Z,28.46
2022-10-06T13:59:33.294Z,28.55
2022-10-06T14:02:03.113Z,28.77
2022-10-06T14:04:34.655Z,28.69
2022-10-06T14:07:06.940Z,28.55
2022-10-06T14:09:35.043Z,28.41
2022-10-06T14:12:04.284Z,28.55
2022-10-06T14:14:32.335Z,28.63
2022-10-06T14:17:00.317Z,28.78
2022-10-06T14:19:36.363Z,28.95
2022-10-06T14:22:06.052Z,29.16
2022-10-06T14:24:37.467Z,29.25
2022-10-06T14:27:06.500Z,29.08
2022-10-06T14:29:37.868Z,29.15
2022-10-06T14:32:10.053Z,29.12
2022-10-06T14:34:40.678Z,29.23
2022-10-06T14:37:13.315Z,29.29
2022-10-06T14:39:41.388Z,29.48
2022-10-06T14:42:12.326Z,29.54
2022-10-06T14:44:40.268Z,29.40
2022-10-06T14:47:09.260Z,29.26
2022-10-06T14:49:37.500Z,29.12
2022-10-06T14:52:05.598Z,29.04
2022-10-06T14:54:35.216Z,28.86
2022-10-06T14:57:03.108Z,28.49
2022-10-06T14:59:31.906Z,28.21
2022-10-06T15:01:59.865Z,28.14
2022-10-06T15:04:28.212Z,27.96
2022-10-06T15:07:13.842Z,27.42
2022-10-06T15:09:43.761Z,26.68
2022-10-06T15:12:11.603Z,26.21
2022-10-06T15:14:39.927Z,25.65
2022-10-06T15:17:08.647Z,25.42
2022-10-06T15:19:36.717Z,25.35
2022-10-06T15:22:06.399Z,25.23
2022-10-06T15:24:34.597Z,25.50
2022-10-06T15:27:31.001Z,25.58
2022-10-06T15:29:59.230Z,25.42
2022-10-06T15:32:35.945Z,25.14
2022-10-06T15:35:03.820Z,24.87
2022-10-06T15:37:31.782Z,24.58
2022-10-06T15:39:59.637Z,24.43
2022-10-06T15:42:28.876Z,24.36
2022-10-06T15:44:56.772Z,24.24
2022-10-06T15:47:24.977Z,24.17
2022-10-06T15:49:52.825Z,23.99
2022-10-06T15:52:20.729Z,23.85
2022-10-06T15:54:48.678Z,23.75
2022-10-06T15:57:20.592Z,23.59
2022-10-06T15:59:50.507Z,23.42
2022-10-06T16:02:20.279Z,23.39
2022-10-06T16:05:15.982Z,23.43
2022-10-06T16:07:43.889Z,23.29
2022-10-06T16:10:12.205Z,23.31
2022-10-06T16:12:40.191Z,23.29
2022-10-06T16:15:10.902Z,23.28
2022-10-06T16:17:38.827Z,23.21
2022-10-06T16:20:07.588Z,23.10
2022-10-06T16:22:35.838Z,23.04
2022-10-06T16:25:03.950Z,22.90
2022-10-06T16:27:33.575Z,22.76
2022-10-06T16:30:01.698Z,22.66
2022-10-06T16:32:31.015Z,22.58
2022-10-06T16:34:58.954Z,22.64
2022-10-06T16:37:26.877Z,22.57
2022-10-06T16:39:54.772Z,22.50
2022-10-06T16:42:22.716Z,22.40
2022-10-06T16:44:50.595Z,22.41
2022-10-06T16:47:18.487Z,22.39
2022-10-06T16:49:47.743Z,22.36
2022-10-06T16:52:15.672Z,22.38
2022-10-06T16:54:43.541Z,22.38
2022-10-06T16:57:11.564Z,22.31
2022-10-06T16:59:44.398Z,22.04
2022-10-06T17:02:14.530Z,22.15
2022-10-06T17:04:42.472Z,22.07
2022-10-06T17:07:11.946Z,22.05
2022-10-06T17:09:55.884Z,22.03
2022-10-06T17:12:27.933Z,22.01
2022-10-06T17:14:56.136Z,21.87
2022-10-06T17:17:24.158Z,21.93
2022-10-06T17:19:53.074Z,21.87
2022-10-06T17:22:22.747Z,21.73
2022-10-06T17:24:50.820Z,21.60
2022-10-06T17:27:20.646Z,21.57
2022-10-06T17:29:49.280Z,21.39
2022-10-06T17:32:17.261Z,21.30
2022-10-06T17:34:45.358Z,21.16
2022-10-06T17:37:13.358Z,21.22
2022-10-06T17:39:47.083Z,21.19
2022-10-06T17:42:16.305Z,21.17
2022-10-06T17:44:44.767Z,21.17
2022-10-06T17:47:12.761Z,21.12
2022-10-06T17:49:40.713Z,21.14
2022-10-06T17:52:08.711Z,21.13
2022-10-06T17:54:36.588Z,21.07
2022-10-06T17:57:06.024Z,21.04
2022-10-06T17:59:33.936Z,20.98
2022-10-06T18:02:02.775Z,20.91
2022-10-06T18:04:30.934Z,20.77
2022-10-06T18:06:58.844Z,20.88
2022-10-06T18:09:26.727Z,20.85
2022-10-06T18:11:56.809Z,20.86
2022-10-06T18:14:27.214Z,20.84
2022-10-06T18:16:57.624Z,20.82
2022-10-06T18:19:29.353Z,20.83
2022-10-06T18:21:58.190Z,20.77
2022-10-06T18:24:27.409Z,20.48
2022-10-06T18:26:56.372Z,20.57
2022-10-06T18:29:38.734Z,20.47
2022-10-06T18:37:43.374Z,20.32
2022-10-06T18:40:12.385Z,20.23
2022-10-06T18:42:40.327Z,20.18
2022-10-06T18:45:29.145Z,20.18
2022-10-06T18:48:14.301Z,20.14
2022-10-06T18:50:42.732Z,20.12
2022-10-06T18:53:10.589Z,20.13
2022-10-06T18:55:38.515Z,20.15
2022-10-06T18:58:06.450Z,20.21
2022-10-06T19:00:36.000Z,20.25
2022-10-06T19:03:05.814Z,20.18
2022-10-06T19:05:35.189Z,20.28
2022-10-06T19:08:03.094Z,20.28
2022-10-06T19:10:30.965Z,20.28
2022-10-06T19:12:59.373Z,20.28
2022-10-06T19:15:27.390Z,20.28
2022-10-06T19:17:56.677Z,20.24
2022-10-06T19:20:24.560Z,20.21
2022-10-06T19:22:52.457Z,20.25
2022-10-06T19:25:21.828Z,20.18
2022-10-06T19:27:51.161Z,20.23
2022-10-06T19:30:19.105Z,20.26
2022-10-06T19:32:47.012Z,20.32
2022-10-06T19:35:18.502Z,20.30
2022-10-06T19:37:46.628Z,20.33
2022-10-06T19:40:14.633Z,20.29
2022-10-06T19:42:47.539Z,20.23
2022-10-06T19:45:16.014Z,20.23
2022-10-06T19:47:45.183Z,20.23
2022-10-06T19:50:13.886Z,20.24
2022-10-06T19:52:43.274Z,20.23
2022-10-06T19:55:11.163Z,20.13
2022-10-06T19:57:39.056Z,20.20
2022-10-06T20:00:08.259Z,20.18
2022-10-06T20:02:39.924Z,20.14
2022-10-06T20:05:10.595Z,20.11
2022-10-06T20:07:38.468Z,20.13
2022-10-06T20:10:08.418Z,20.15
2022-10-06T20:12:38.379Z,20.12
2022-10-06T20:15:07.215Z,20.08
2022-10-06T20:17:37.569Z,19.97
2022-10-06T20:20:06.037Z,20.07
2022-10-06T20:22:33.958Z,20.06
2022-10-06T20:25:02.520Z,20.09
2022-10-06T20:27:31.840Z,20.06
2022-10-06T20:29:59.661Z,20.09
2022-10-06T20:32:27.510Z,20.10
2022-10-06T20:34:55.335Z,20.10
2022-10-06T20:37:23.203Z,20.08
2022-10-06T20:40:08.282Z,20.07
2022-10-06T20:42:37.552Z,20.08
2022-10-06T20:45:07.118Z,20.06
2022-10-06T20:47:34.963Z,20.08
2022-10-06T20:50:02.807Z,20.05
2022-10-06T20:52:31.675Z,20.09
2022-10-06T20:54:59.611Z,20.02
2022-10-06T20:57:32.893Z,20.02
2022-10-06T21:00:03.299Z,19.96
2022-10-06T21:02:32.062Z,19.94
2022-10-06T21:05:01.558Z,19.85
2022-10-06T21:07:29.476Z,19.83
2022-10-06T21:09:57.423Z,19.82
2022-10-06T21:12:25.420Z,19.84
2022-10-06T21:14:53.329Z,19.81
2022-10-06T21:17:22.563Z,19.79
2022-10-06T21:19:50.497Z,19.77
2022-10-06T21:22:18.426Z,19.75
2022-10-06T21:24:46.459Z,19.74
2022-10-06T21:27:14.390Z,19.73
2022-10-06T21:29:42.635Z,19.71
2022-10-06T21:32:10.714Z,19.73
2022-10-06T21:34:40.136Z,19.73
2022-10-06T21:37:07.978Z,19.70
2022-10-06T21:39:35.910Z,19.65
2022-10-06T21:42:04.109Z,19.61
2022-10-06T21:44:32.085Z,19.64
2022-10-06T21:47:02.569Z,19.63
2022-10-06T21:49:30.622Z,19.64
2022-10-06T21:52:04.590Z,19.67
2022-10-06T21:54:32.571Z,19.68
2022-10-06T21:57:00.435Z,19.68
2022-10-06T21:59:28.274Z,19.71
2022-10-06T22:01:56.814Z,19.75
2022-10-06T22:04:24.918Z,19.79
2022-10-06T22:06:52.868Z,19.80
2022-10-06T22:09:22.197Z,19.77
2022-10-06T22:11:50.112Z,19.71
2022-10-06T22:14:18.909Z,19.67
2022-10-06T22:16:46.814Z,19.65
2022-10-06T22:19:14.922Z,19.62
2022-10-06T22:21:43.539Z,19.56
2022-10-06T22:24:12.312Z,19.57
2022-10-06T22:26:41.932Z,19.63
2022-10-06T22:29:11.463Z,19.66
2022-10-06T22:31:40.205Z,19.73
2022-10-06T22:34:08.245Z,19.77
2022-10-06T22:36:36.088Z,19.80
2022-10-06T22:39:04.015Z,19.80
2022-10-06T22:41:31.936Z,19.79
2022-10-06T22:44:01.270Z,19.77
2022-10-06T22:46:30.307Z,19.74
2022-10-06T22:48:58.306Z,19.70
2022-10-06T22:51:26.286Z,19.65
2022-10-06T22:53:57.884Z,19.57
2022-10-06T22:56:26.485Z,19.60
2022-10-06T22:58:54.355Z,19.58
2022-10-06T23:01:23.603Z,19.59
2022-10-06T23:03:51.466Z,19.58
2022-10-06T23:06:19.378Z,19.57
2022-10-06T23:08:47.267Z,19.60
2022-10-06T23:11:15.914Z,19.58
2022-10-06T23:13:44.484Z,19.57
2022-10-06T23:16:13.115Z,19.57
2022-10-06T23:18:42.809Z,19.70
2022-10-06T23:21:11.418Z,19.75
2022-10-06T23:23:39.313Z,19.80
2022-10-06T23:26:07.598Z,19.82
2022-10-06T23:28:35.508Z,19.81
2022-10-06T23:31:04.953Z,19.78
2022-10-06T23:33:32.918Z,19.69
2022-10-06T23:36:03.032Z,19.63
2022-10-06T23:38:30.910Z,19.60
2022-10-06T23:40:58.924Z,19.59
2022-10-06T23:43:29.090Z,19.56
2022-10-06T23:45:57.239Z,19.57
2022-10-06T23:48:25.239Z,19.57
2022-10-06T23:50:57.310Z,19.56
2022-10-06T23:53:26.641Z,19.55
2022-10-06T23:55:54.503Z,19.54
2022-10-06T23:58:22.637Z,19.48
